sensor_id;sensor_type;location;lat;lon;timestamp;temperature;humidity
20831;DHT22;10576;53.556;9.868;2023-06-14T00:01:01;14.90;99.90
20831;DHT22;10576;53.556;9.868;2023-06-14T00:03:28;14.90;99.90
20831;DHT22;10576;53.556;9.868;2023-06-14T00:05:54;14.90;99.90
20831;DHT22;10576;53.556;9.868;2023-06-14T00:08:20;14.90;99.90
20831;DHT22;10576;53.556;9.868;2023-06-14T00:10:48;14.90;99.90
20831;DHT22;10576;53.556;9.868;2023-06-14T00:13:13;15.20;99.90
20831;DHT22;10576;53.556;9.868;2023-06-14T00:15:39;14.90;99.90
20831;DHT22;10576;53.556;9.868;2023-06-14T00:18:05;14.90;99.90
20831;DHT22;10576;53.556;9.868;2023-06-14T00:20:31;14.90;99.90
20831;DHT22;10576;53.556;9.868;2023-06-14T00:22:58;14.90;99.90
20831;DHT22;10576;53.556;9.868;2023-06-14T00:25:24;14.90;99.90
20831;DHT22;10576;53.556;9.868;2023-06-14T00:27:53;14.90;99.90
20831;DHT22;10576;53.556;9.868;2023-06-14T00:30:18;14.90;99.90
20831;DHT22;10576;53.556;9.868;2023-06-14T00:32:44;14.90;99.90
20831;DHT22;10576;53.556;9.868;2023-06-14T00:35:10;14.90;99.90
20831;DHT22;10576;53.556;9.868;2023-06-14T00:37:36;14.80;99.90
20831;DHT22;10576;53.556;9.868;2023-06-14T00:40:01;14.80;99.90
20831;DHT22;10576;53.556;9.868;2023-06-14T00:42:27;14.80;99.90
20831;DHT22;10576;53.556;9.868;2023-06-14T00:44:53;14.70;99.90
20831;DHT22;10576;53.556;9.868;2023-06-14T00:47:19;14.70;99.90
20831;DHT22;10576;53.556;9.868;2023-06-14T00:49:45;14.70;99.90
20831;DHT22;10576;53.556;9.868;2023-06-14T00:52:11;14.70;99.90
20831;DHT22;10576;53.556;9.868;2023-06-14T00:54:38;14.70;99.90
20831;DHT22;10576;53.556;9.868;2023-06-14T00:57:03;14.70;99.90
20831;DHT22;10576;53.556;9.868;2023-06-14T00:59:29;14.60;99.90
20831;DHT22;10576;53.556;9.868;2023-06-14T01:01:55;14.60;99.90
20831;DHT22;10576;53.556;9.868;2023-06-14T01:04:20;15.60;99.90
20831;DHT22;10576;53.556;9.868;2023-06-14T01:06:52;14.50;99.90
20831;DHT22;10576;53.556;9.868;2023-06-14T01:09:28;14.50;99.90
20831;DHT22;10576;53.556;9.868;2023-06-14T01:14:23;14.50;99.90
20831;DHT22;10576;53.556;9.868;2023-06-14T01:16:50;14.40;99.90
20831;DHT22;10576;53.556;9.868;2023-06-14T01:19:18;14.40;99.90
20831;DHT22;10576;53.556;9.868;2023-06-14T01:21:44;14.40;99.90
20831;DHT22;10576;53.556;9.868;2023-06-14T01:24:09;14.40;99.90
20831;DHT22;10576;53.556;9.868;2023-06-14T01:26:36;14.40;99.90
20831;DHT22;10576;53.556;9.868;2023-06-14T01:29:04;14.40;99.90
20831;DHT22;10576;53.556;9.868;2023-06-14T01:31:30;14.40;99.90
20831;DHT22;10576;53.556;9.868;2023-06-14T01:34:06;14.30;99.90
20831;DHT22;10576;53.556;9.868;2023-06-14T01:36:32;14.30;99.90
20831;DHT22;10576;53.556;9.868;2023-06-14T01:38:58;14.30;99.90
20831;DHT22;10576;53.556;9.868;2023-06-14T01:41:24;14.30;99.90
20831;DHT22;10576;53.556;9.868;2023-06-14T01:43:50;14.30;99.90
20831;DHT22;10576;53.556;9.868;2023-06-14T01:46:17;14.20;99.90
20831;DHT22;10576;53.556;9.868;2023-06-14T01:48:43;14.20;99.90
20831;DHT22;10576;53.556;9.868;2023-06-14T01:51:08;14.20;99.90
20831;DHT22;10576;53.556;9.868;2023-06-14T01:53:34;14.20;99.90
20831;DHT22;10576;53.556;9.868;2023-06-14T01:55:59;14.20;99.90
20831;DHT22;10576;53.556;9.868;2023-06-14T01:58:26;14.10;99.90
20831;DHT22;10576;53.556;9.868;2023-06-14T02:00:52;14.10;99.90
20831;DHT22;10576;53.556;9.868;2023-06-14T02:03:20;14.10;99.90
20831;DHT22;10576;53.556;9.868;2023-06-14T02:05:46;14.10;99.90
20831;DHT22;10576;53.556;9.868;2023-06-14T02:08:11;14.00;99.90
20831;DHT22;10576;53.556;9.868;2023-06-14T02:10:37;14.00;99.90
20831;DHT22;10576;53.556;9.868;2023-06-14T02:13:02;14.60;99.90
20831;DHT22;10576;53.556;9.868;2023-06-14T02:15:28;13.90;99.90
20831;DHT22;10576;53.556;9.868;2023-06-14T02:17:59;13.90;99.90
20831;DHT22;10576;53.556;9.868;2023-06-14T02:20:25;13.90;99.90
20831;DHT22;10576;53.556;9.868;2023-06-14T02:22:50;13.90;99.90
20831;DHT22;10576;53.556;9.868;2023-06-14T02:25:16;13.90;99.90
20831;DHT22;10576;53.556;9.868;2023-06-14T02:27:41;13.90;99.90
20831;DHT22;10576;53.556;9.868;2023-06-14T02:30:07;13.60;99.90
20831;DHT22;10576;53.556;9.868;2023-06-14T02:32:33;13.90;99.90
20831;DHT22;10576;53.556;9.868;2023-06-14T02:35:02;13.90;99.90
20831;DHT22;10576;53.556;9.868;2023-06-14T02:37:27;13.80;99.90
20831;DHT22;10576;53.556;9.868;2023-06-14T02:39:53;13.80;99.90
20831;DHT22;10576;53.556;9.868;2023-06-14T02:42:18;13.70;99.90
20831;DHT22;10576;53.556;9.868;2023-06-14T02:44:44;13.70;99.90
20831;DHT22;10576;53.556;9.868;2023-06-14T02:47:11;13.70;99.90
20831;DHT22;10576;53.556;9.868;2023-06-14T02:49:37;13.60;99.90
20831;DHT22;10576;53.556;9.868;2023-06-14T02:52:03;13.60;99.90
20831;DHT22;10576;53.556;9.868;2023-06-14T02:54:28;13.60;99.90
20831;DHT22;10576;53.556;9.868;2023-06-14T02:56:54;13.60;99.90
20831;DHT22;10576;53.556;9.868;2023-06-14T02:59:19;13.60;99.90
20831;DHT22;10576;53.556;9.868;2023-06-14T03:01:46;13.50;99.90
20831;DHT22;10576;53.556;9.868;2023-06-14T03:04:12;13.50;99.90
20831;DHT22;10576;53.556;9.868;2023-06-14T03:06:37;13.50;99.90
20831;DHT22;10576;53.556;9.868;2023-06-14T03:09:04;13.50;99.90
20831;DHT22;10576;53.556;9.868;2023-06-14T03:11:30;13.50;99.90
20831;DHT22;10576;53.556;9.868;2023-06-14T03:13:56;13.40;99.90
20831;DHT22;10576;53.556;9.868;2023-06-14T03:16:22;13.40;99.90
20831;DHT22;10576;53.556;9.868;2023-06-14T03:18:52;13.40;99.90
20831;DHT22;10576;53.556;9.868;2023-06-14T03:21:21;13.40;99.90
20831;DHT22;10576;53.556;9.868;2023-06-14T03:23:47;13.40;99.90
20831;DHT22;10576;53.556;9.868;2023-06-14T03:26:13;13.40;99.90
20831;DHT22;10576;53.556;9.868;2023-06-14T03:28:39;13.40;99.90
20831;DHT22;10576;53.556;9.868;2023-06-14T03:31:05;13.40;99.90
20831;DHT22;10576;53.556;9.868;2023-06-14T03:33:30;13.40;99.90
20831;DHT22;10576;53.556;9.868;2023-06-14T03:35:56;13.30;99.90
20831;DHT22;10576;53.556;9.868;2023-06-14T03:38:22;13.40;99.90
20831;DHT22;10576;53.556;9.868;2023-06-14T03:40:48;13.40;99.90
20831;DHT22;10576;53.556;9.868;2023-06-14T03:43:14;13.40;99.90
20831;DHT22;10576;53.556;9.868;2023-06-14T03:45:39;13.30;99.90
20831;DHT22;10576;53.556;9.868;2023-06-14T03:48:05;13.40;99.90
20831;DHT22;10576;53.556;9.868;2023-06-14T03:50:32;13.40;99.90
20831;DHT22;10576;53.556;9.868;2023-06-14T03:52:57;13.50;99.90
20831;DHT22;10576;53.556;9.868;2023-06-14T03:55:23;13.50;99.90
20831;DHT22;10576;53.556;9.868;2023-06-14T03:57:51;13.50;99.90
20831;DHT22;10576;53.556;9.868;2023-06-14T04:00:16;13.50;99.90
20831;DHT22;10576;53.556;9.868;2023-06-14T04:02:43;13.60;99.90
20831;DHT22;10576;53.556;9.868;2023-06-14T04:05:09;13.60;99.90
20831;DHT22;10576;53.556;9.868;2023-06-14T04:07:35;13.70;99.90
20831;DHT22;10576;53.556;9.868;2023-06-14T04:10:08;13.70;99.90
20831;DHT22;10576;53.556;9.868;2023-06-14T04:12:33;13.80;99.90
20831;DHT22;10576;53.556;9.868;2023-06-14T04:14:59;13.80;99.90
20831;DHT22;10576;53.556;9.868;2023-06-14T04:17:26;13.80;99.90
20831;DHT22;10576;53.556;9.868;2023-06-14T04:19:51;14.70;99.90
20831;DHT22;10576;53.556;9.868;2023-06-14T04:22:17;13.90;99.90
20831;DHT22;10576;53.556;9.868;2023-06-14T04:24:43;13.90;99.90
20831;DHT22;10576;53.556;9.868;2023-06-14T04:27:10;14.00;99.90
20831;DHT22;10576;53.556;9.868;2023-06-14T04:29:35;14.00;99.90
20831;DHT22;10576;53.556;9.868;2023-06-14T04:32:01;14.10;99.90
20831;DHT22;10576;53.556;9.868;2023-06-14T04:34:27;14.10;99.90
20831;DHT22;10576;53.556;9.868;2023-06-14T04:36:59;14.10;99.90
20831;DHT22;10576;53.556;9.868;2023-06-14T04:39:26;14.20;99.90
20831;DHT22;10576;53.556;9.868;2023-06-14T04:41:52;14.30;99.90
20831;DHT22;10576;53.556;9.868;2023-06-14T04:44:22;14.30;99.90
20831;DHT22;10576;53.556;9.868;2023-06-14T04:46:57;14.40;99.90
20831;DHT22;10576;53.556;9.868;2023-06-14T04:49:24;14.50;99.90
20831;DHT22;10576;53.556;9.868;2023-06-14T04:51:50;14.50;99.90
20831;DHT22;10576;53.556;9.868;2023-06-14T04:54:23;14.60;99.90
20831;DHT22;10576;53.556;9.868;2023-06-14T04:56:50;14.70;99.90
20831;DHT22;10576;53.556;9.868;2023-06-14T04:59:15;14.70;99.90
20831;DHT22;10576;53.556;9.868;2023-06-14T05:01:42;14.70;99.90
20831;DHT22;10576;53.556;9.868;2023-06-14T05:04:12;14.80;99.90
20831;DHT22;10576;53.556;9.868;2023-06-14T05:06:38;14.90;99.90
20831;DHT22;10576;53.556;9.868;2023-06-14T05:09:04;14.90;99.90
20831;DHT22;10576;53.556;9.868;2023-06-14T05:11:29;14.90;99.90
20831;DHT22;10576;53.556;9.868;2023-06-14T05:13:55;15.00;99.90
20831;DHT22;10576;53.556;9.868;2023-06-14T05:16:20;15.20;99.90
20831;DHT22;10576;53.556;9.868;2023-06-14T05:18:48;15.20;99.90
20831;DHT22;10576;53.556;9.868;2023-06-14T05:21:14;15.30;99.90
20831;DHT22;10576;53.556;9.868;2023-06-14T05:23:43;15.50;99.90
20831;DHT22;10576;53.556;9.868;2023-06-14T05:26:09;15.60;99.90
20831;DHT22;10576;53.556;9.868;2023-06-14T05:28:35;15.70;99.90
20831;DHT22;10576;53.556;9.868;2023-06-14T05:31:01;15.90;99.90
20831;DHT22;10576;53.556;9.868;2023-06-14T05:33:27;16.00;99.90
20831;DHT22;10576;53.556;9.868;2023-06-14T05:35:52;16.10;99.90
20831;DHT22;10576;53.556;9.868;2023-06-14T05:38:18;16.30;99.90
20831;DHT22;10576;53.556;9.868;2023-06-14T05:40:43;16.40;99.90
20831;DHT22;10576;53.556;9.868;2023-06-14T05:43:09;16.50;99.90
20831;DHT22;10576;53.556;9.868;2023-06-14T05:45:35;16.60;99.90
20831;DHT22;10576;53.556;9.868;2023-06-14T05:48:01;16.70;99.90
20831;DHT22;10576;53.556;9.868;2023-06-14T05:50:26;16.90;99.90
20831;DHT22;10576;53.556;9.868;2023-06-14T05:52:53;17.00;99.90
20831;DHT22;10576;53.556;9.868;2023-06-14T05:55:18;17.20;99.90
20831;DHT22;10576;53.556;9.868;2023-06-14T05:57:44;17.40;99.90
20831;DHT22;10576;53.556;9.868;2023-06-14T06:00:10;17.40;99.90
20831;DHT22;10576;53.556;9.868;2023-06-14T06:02:44;17.40;99.90
20831;DHT22;10576;53.556;9.868;2023-06-14T06:05:10;17.40;99.90
20831;DHT22;10576;53.556;9.868;2023-06-14T06:07:36;17.40;99.90
20831;DHT22;10576;53.556;9.868;2023-06-14T06:10:03;17.40;99.90
20831;DHT22;10576;53.556;9.868;2023-06-14T06:12:28;17.40;99.90
20831;DHT22;10576;53.556;9.868;2023-06-14T06:14:54;17.40;99.90
20831;DHT22;10576;53.556;9.868;2023-06-14T06:17:20;17.40;99.90
20831;DHT22;10576;53.556;9.868;2023-06-14T06:19:46;17.40;99.90
20831;DHT22;10576;53.556;9.868;2023-06-14T06:22:11;17.40;99.90
20831;DHT22;10576;53.556;9.868;2023-06-14T06:24:37;17.50;99.90
20831;DHT22;10576;53.556;9.868;2023-06-14T06:27:02;17.50;99.90
20831;DHT22;10576;53.556;9.868;2023-06-14T06:29:28;17.50;99.90
20831;DHT22;10576;53.556;9.868;2023-06-14T06:31:54;17.50;99.90
20831;DHT22;10576;53.556;9.868;2023-06-14T06:34:21;17.60;99.90
20831;DHT22;10576;53.556;9.868;2023-06-14T06:36:47;17.70;99.90
20831;DHT22;10576;53.556;9.868;2023-06-14T06:39:12;17.70;99.90
20831;DHT22;10576;53.556;9.868;2023-06-14T06:41:40;17.70;99.90
20831;DHT22;10576;53.556;9.868;2023-06-14T06:44:06;17.80;99.90
20831;DHT22;10576;53.556;9.868;2023-06-14T06:46:32;17.90;99.90
20831;DHT22;10576;53.556;9.868;2023-06-14T06:48:57;17.90;99.90
20831;DHT22;10576;53.556;9.868;2023-06-14T06:51:23;17.90;99.90
20831;DHT22;10576;53.556;9.868;2023-06-14T06:53:52;17.90;99.90
20831;DHT22;10576;53.556;9.868;2023-06-14T06:56:17;18.00;99.90
20831;DHT22;10576;53.556;9.868;2023-06-14T06:58:43;18.00;99.90
20831;DHT22;10576;53.556;9.868;2023-06-14T07:01:08;18.00;99.90
20831;DHT22;10576;53.556;9.868;2023-06-14T07:03:34;18.00;99.90
20831;DHT22;10576;53.556;9.868;2023-06-14T07:06:00;18.20;99.90
20831;DHT22;10576;53.556;9.868;2023-06-14T07:08:29;18.20;99.90
20831;DHT22;10576;53.556;9.868;2023-06-14T07:10:54;18.20;99.90
20831;DHT22;10576;53.556;9.868;2023-06-14T07:13:20;18.30;99.90
20831;DHT22;10576;53.556;9.868;2023-06-14T07:15:46;18.50;99.90
20831;DHT22;10576;53.556;9.868;2023-06-14T07:18:12;18.30;99.90
20831;DHT22;10576;53.556;9.868;2023-06-14T07:20:37;18.40;99.90
20831;DHT22;10576;53.556;9.868;2023-06-14T07:23:03;18.50;99.90
20831;DHT22;10576;53.556;9.868;2023-06-14T07:25:29;18.50;99.90
20831;DHT22;10576;53.556;9.868;2023-06-14T07:27:54;18.60;99.90
20831;DHT22;10576;53.556;9.868;2023-06-14T07:30:20;18.70;99.90
20831;DHT22;10576;53.556;9.868;2023-06-14T07:32:46;18.70;99.90
20831;DHT22;10576;53.556;9.868;2023-06-14T07:35:11;18.80;99.90
20831;DHT22;10576;53.556;9.868;2023-06-14T07:37:37;19.00;99.90
20831;DHT22;10576;53.556;9.868;2023-06-14T07:40:03;19.10;99.90
20831;DHT22;10576;53.556;9.868;2023-06-14T07:42:33;19.20;99.90
20831;DHT22;10576;53.556;9.868;2023-06-14T07:44:59;19.30;99.90
20831;DHT22;10576;53.556;9.868;2023-06-14T07:47:24;19.50;99.90
20831;DHT22;10576;53.556;9.868;2023-06-14T07:49:50;19.80;99.90
20831;DHT22;10576;53.556;9.868;2023-06-14T07:52:16;20.00;99.90
20831;DHT22;10576;53.556;9.868;2023-06-14T07:54:41;20.20;99.90
20831;DHT22;10576;53.556;9.868;2023-06-14T07:57:07;20.40;99.90
20831;DHT22;10576;53.556;9.868;2023-06-14T07:59:32;20.70;99.90
20831;DHT22;10576;53.556;9.868;2023-06-14T08:01:58;20.90;99.90
20831;DHT22;10576;53.556;9.868;2023-06-14T08:04:24;21.40;99.90
20831;DHT22;10576;53.556;9.868;2023-06-14T08:06:50;21.70;99.90
20831;DHT22;10576;53.556;9.868;2023-06-14T08:09:16;22.00;99.90
20831;DHT22;10576;53.556;9.868;2023-06-14T08:11:41;22.50;99.90
20831;DHT22;10576;53.556;9.868;2023-06-14T08:14:08;23.00;99.90
20831;DHT22;10576;53.556;9.868;2023-06-14T08:16:33;23.20;99.90
20831;DHT22;10576;53.556;9.868;2023-06-14T08:18:59;23.60;99.90
20831;DHT22;10576;53.556;9.868;2023-06-14T08:21:25;23.70;99.90
20831;DHT22;10576;53.556;9.868;2023-06-14T08:23:52;24.10;99.90
20831;DHT22;10576;53.556;9.868;2023-06-14T08:26:18;24.20;99.90
20831;DHT22;10576;53.556;9.868;2023-06-14T08:28:44;24.20;99.90
20831;DHT22;10576;53.556;9.868;2023-06-14T08:31:09;24.40;99.90
20831;DHT22;10576;53.556;9.868;2023-06-14T08:33:35;24.60;99.90
20831;DHT22;10576;53.556;9.868;2023-06-14T08:36:00;24.80;99.90
20831;DHT22;10576;53.556;9.868;2023-06-14T08:38:26;24.80;99.90
20831;DHT22;10576;53.556;9.868;2023-06-14T08:40:52;25.20;99.90
20831;DHT22;10576;53.556;9.868;2023-06-14T08:43:18;25.20;99.90
20831;DHT22;10576;53.556;9.868;2023-06-14T08:45:44;25.50;99.90
20831;DHT22;10576;53.556;9.868;2023-06-14T08:48:11;25.60;99.90
20831;DHT22;10576;53.556;9.868;2023-06-14T08:50:42;25.60;99.90
20831;DHT22;10576;53.556;9.868;2023-06-14T08:53:08;25.50;99.90
20831;DHT22;10576;53.556;9.868;2023-06-14T08:55:35;25.70;99.90
20831;DHT22;10576;53.556;9.868;2023-06-14T08:58:03;25.40;99.90
20831;DHT22;10576;53.556;9.868;2023-06-14T09:00:30;25.50;99.90
20831;DHT22;10576;53.556;9.868;2023-06-14T09:02:56;25.50;99.90
20831;DHT22;10576;53.556;9.868;2023-06-14T09:05:23;25.40;99.90
20831;DHT22;10576;53.556;9.868;2023-06-14T09:07:49;25.40;99.90
20831;DHT22;10576;53.556;9.868;2023-06-14T09:10:15;25.50;99.90
20831;DHT22;10576;53.556;9.868;2023-06-14T09:12:41;25.60;99.90
20831;DHT22;10576;53.556;9.868;2023-06-14T09:15:10;25.60;99.90
20831;DHT22;10576;53.556;9.868;2023-06-14T09:17:36;25.90;99.90
20831;DHT22;10576;53.556;9.868;2023-06-14T09:20:05;26.00;99.90
20831;DHT22;10576;53.556;9.868;2023-06-14T09:22:42;25.60;99.90
20831;DHT22;10576;53.556;9.868;2023-06-14T09:25:08;25.90;99.90
20831;DHT22;10576;53.556;9.868;2023-06-14T09:27:34;25.90;99.90
20831;DHT22;10576;53.556;9.868;2023-06-14T09:30:03;26.10;99.90
20831;DHT22;10576;53.556;9.868;2023-06-14T09:32:29;26.10;99.90
20831;DHT22;10576;53.556;9.868;2023-06-14T09:34:55;26.10;99.90
20831;DHT22;10576;53.556;9.868;2023-06-14T09:37:28;26.20;99.90
20831;DHT22;10576;53.556;9.868;2023-06-14T09:39:55;25.70;99.90
20831;DHT22;10576;53.556;9.868;2023-06-14T09:42:20;25.60;99.90
20831;DHT22;10576;53.556;9.868;2023-06-14T09:44:47;25.60;99.90
20831;DHT22;10576;53.556;9.868;2023-06-14T09:47:13;25.90;99.90
20831;DHT22;10576;53.556;9.868;2023-06-14T09:49:39;26.30;99.90
20831;DHT22;10576;53.556;9.868;2023-06-14T09:52:05;26.30;99.50
20831;DHT22;10576;53.556;9.868;2023-06-14T09:54:32;25.20;99.90
20831;DHT22;10576;53.556;9.868;2023-06-14T09:56:59;25.20;99.90
20831;DHT22;10576;53.556;9.868;2023-06-14T09:59:26;24.60;99.90
20831;DHT22;10576;53.556;9.868;2023-06-14T10:01:55;24.20;99.90
20831;DHT22;10576;53.556;9.868;2023-06-14T10:04:22;24.50;99.90
20831;DHT22;10576;53.556;9.868;2023-06-14T10:06:47;24.90;99.90
20831;DHT22;10576;53.556;9.868;2023-06-14T10:09:15;25.30;99.90
20831;DHT22;10576;53.556;9.868;2023-06-14T10:11:42;25.60;99.90
20831;DHT22;10576;53.556;9.868;2023-06-14T10:14:09;25.50;99.90
20831;DHT22;10576;53.556;9.868;2023-06-14T10:24:58;25.70;99.90
20831;DHT22;10576;53.556;9.868;2023-06-14T10:27:17;25.90;99.90
20831;DHT22;10576;53.556;9.868;2023-06-14T10:32:21;24.80;99.90
20831;DHT22;10576;53.556;9.868;2023-06-14T10:34:55;25.30;99.90
20831;DHT22;10576;53.556;9.868;2023-06-14T10:37:21;25.90;99.90
20831;DHT22;10576;53.556;9.868;2023-06-14T10:39:47;25.60;99.90
20831;DHT22;10576;53.556;9.868;2023-06-14T10:42:13;26.20;99.90
20831;DHT22;10576;53.556;9.868;2023-06-14T10:44:51;26.60;99.90
20831;DHT22;10576;53.556;9.868;2023-06-14T10:47:21;26.40;99.90
20831;DHT22;10576;53.556;9.868;2023-06-14T10:49:49;26.50;99.20
20831;DHT22;10576;53.556;9.868;2023-06-14T10:52:16;26.50;99.40
20831;DHT22;10576;53.556;9.868;2023-06-14T10:57:29;27.00;99.00
20831;DHT22;10576;53.556;9.868;2023-06-14T10:59:57;26.80;99.40
20831;DHT22;10576;53.556;9.868;2023-06-14T11:05:08;26.90;99.90
20831;DHT22;10576;53.556;9.868;2023-06-14T11:12:41;27.30;97.80
20831;DHT22;10576;53.556;9.868;2023-06-14T11:15:11;27.60;97.20
20831;DHT22;10576;53.556;9.868;2023-06-14T11:17:36;27.70;98.10
20831;DHT22;10576;53.556;9.868;2023-06-14T11:20:11;27.40;97.20
20831;DHT22;10576;53.556;9.868;2023-06-14T11:22:41;27.00;97.50
20831;DHT22;10576;53.556;9.868;2023-06-14T11:25:13;27.50;97.80
20831;DHT22;10576;53.556;9.868;2023-06-14T11:27:38;28.00;98.50
20831;DHT22;10576;53.556;9.868;2023-06-14T11:30:06;27.80;95.90
20831;DHT22;10576;53.556;9.868;2023-06-14T11:32:32;27.00;97.10
20831;DHT22;10576;53.556;9.868;2023-06-14T11:34:58;26.20;97.20
20831;DHT22;10576;53.556;9.868;2023-06-14T11:37:27;25.80;96.60
20831;DHT22;10576;53.556;9.868;2023-06-14T11:39:57;25.90;98.50
20831;DHT22;10576;53.556;9.868;2023-06-14T11:42:23;26.40;97.00
20831;DHT22;10576;53.556;9.868;2023-06-14T11:44:49;26.50;97.10
20831;DHT22;10576;53.556;9.868;2023-06-14T11:47:15;26.90;95.90
20831;DHT22;10576;53.556;9.868;2023-06-14T11:49:40;26.80;96.70
20831;DHT22;10576;53.556;9.868;2023-06-14T11:52:07;26.30;96.60
20831;DHT22;10576;53.556;9.868;2023-06-14T11:54:32;26.10;96.90
20831;DHT22;10576;53.556;9.868;2023-06-14T11:56:58;25.70;96.70
20831;DHT22;10576;53.556;9.868;2023-06-14T11:59:24;25.60;97.40
20831;DHT22;10576;53.556;9.868;2023-06-14T12:01:50;25.70;98.10
20831;DHT22;10576;53.556;9.868;2023-06-14T12:04:23;25.90;97.10
20831;DHT22;10576;53.556;9.868;2023-06-14T12:06:48;26.30;97.50
20831;DHT22;10576;53.556;9.868;2023-06-14T12:09:15;26.20;97.70
20831;DHT22;10576;53.556;9.868;2023-06-14T12:11:43;26.10;96.40
20831;DHT22;10576;53.556;9.868;2023-06-14T12:14:09;25.80;98.20
20831;DHT22;10576;53.556;9.868;2023-06-14T12:16:38;26.10;98.00
20831;DHT22;10576;53.556;9.868;2023-06-14T12:19:11;26.50;98.40
20831;DHT22;10576;53.556;9.868;2023-06-14T12:21:38;26.60;98.10
20831;DHT22;10576;53.556;9.868;2023-06-14T12:24:04;26.20;96.40
20831;DHT22;10576;53.556;9.868;2023-06-14T12:26:32;26.00;97.30
20831;DHT22;10576;53.556;9.868;2023-06-14T12:28:57;26.30;97.30
20831;DHT22;10576;53.556;9.868;2023-06-14T12:31:25;26.80;97.30
20831;DHT22;10576;53.556;9.868;2023-06-14T12:33:58;27.10;96.60
20831;DHT22;10576;53.556;9.868;2023-06-14T12:36:28;26.90;96.50
20831;DHT22;10576;53.556;9.868;2023-06-14T12:38:54;26.10;97.30
20831;DHT22;10576;53.556;9.868;2023-06-14T12:41:20;25.50;96.90
20831;DHT22;10576;53.556;9.868;2023-06-14T12:43:49;25.20;97.90
20831;DHT22;10576;53.556;9.868;2023-06-14T12:46:15;25.10;97.50
20831;DHT22;10576;53.556;9.868;2023-06-14T12:48:40;25.40;98.30
20831;DHT22;10576;53.556;9.868;2023-06-14T12:51:06;25.80;98.00
20831;DHT22;10576;53.556;9.868;2023-06-14T12:53:31;25.70;97.70
20831;DHT22;10576;53.556;9.868;2023-06-14T12:55:57;25.30;98.20
20831;DHT22;10576;53.556;9.868;2023-06-14T12:58:22;25.00;98.60
20831;DHT22;10576;53.556;9.868;2023-06-14T13:00:49;24.60;97.90
20831;DHT22;10576;53.556;9.868;2023-06-14T13:03:15;24.60;98.30
20831;DHT22;10576;53.556;9.868;2023-06-14T13:05:40;25.00;98.70
20831;DHT22;10576;53.556;9.868;2023-06-14T13:08:07;25.40;97.80
20831;DHT22;10576;53.556;9.868;2023-06-14T13:10:33;25.30;98.50
20831;DHT22;10576;53.556;9.868;2023-06-14T13:12:59;24.90;97.90
20831;DHT22;10576;53.556;9.868;2023-06-14T13:15:25;24.80;97.90
20831;DHT22;10576;53.556;9.868;2023-06-14T13:17:51;24.60;99.40
20831;DHT22;10576;53.556;9.868;2023-06-14T13:20:16;24.50;99.30
20831;DHT22;10576;53.556;9.868;2023-06-14T13:22:42;24.30;99.20
20831;DHT22;10576;53.556;9.868;2023-06-14T13:25:07;24.10;99.50
20831;DHT22;10576;53.556;9.868;2023-06-14T13:27:33;24.00;99.30
20831;DHT22;10576;53.556;9.868;2023-06-14T13:29:58;24.00;99.60
20831;DHT22;10576;53.556;9.868;2023-06-14T13:32:24;24.20;99.90
20831;DHT22;10576;53.556;9.868;2023-06-14T13:34:50;24.70;98.50
20831;DHT22;10576;53.556;9.868;2023-06-14T13:37:15;24.90;98.40
20831;DHT22;10576;53.556;9.868;2023-06-14T13:39:41;24.90;97.40
20831;DHT22;10576;53.556;9.868;2023-06-14T13:42:07;24.50;99.50
20831;DHT22;10576;53.556;9.868;2023-06-14T13:44:32;24.30;99.40
20831;DHT22;10576;53.556;9.868;2023-06-14T13:46:58;24.10;98.90
20831;DHT22;10576;53.556;9.868;2023-06-14T13:49:23;24.30;98.30
20831;DHT22;10576;53.556;9.868;2023-06-14T13:51:49;24.60;98.30
20831;DHT22;10576;53.556;9.868;2023-06-14T13:54:14;25.10;99.70
20831;DHT22;10576;53.556;9.868;2023-06-14T13:56:40;24.70;98.50
20831;DHT22;10576;53.556;9.868;2023-06-14T13:59:06;24.50;98.60
20831;DHT22;10576;53.556;9.868;2023-06-14T14:01:32;24.30;99.30
20831;DHT22;10576;53.556;9.868;2023-06-14T14:03:57;24.10;98.70
20831;DHT22;10576;53.556;9.868;2023-06-14T14:06:24;24.30;98.90
20831;DHT22;10576;53.556;9.868;2023-06-14T14:08:49;24.50;98.30
20831;DHT22;10576;53.556;9.868;2023-06-14T14:11:15;24.70;97.50
20831;DHT22;10576;53.556;9.868;2023-06-14T14:13:41;24.70;97.40
20831;DHT22;10576;53.556;9.868;2023-06-14T14:16:07;24.70;96.70
20831;DHT22;10576;53.556;9.868;2023-06-14T14:18:33;24.70;98.00
20831;DHT22;10576;53.556;9.868;2023-06-14T14:20:58;24.50;97.40
20831;DHT22;10576;53.556;9.868;2023-06-14T14:23:26;24.30;98.10
20831;DHT22;10576;53.556;9.868;2023-06-14T14:25:51;24.40;96.30
20831;DHT22;10576;53.556;9.868;2023-06-14T14:28:17;24.60;97.50
20831;DHT22;10576;53.556;9.868;2023-06-14T14:30:44;25.00;97.60
20831;DHT22;10576;53.556;9.868;2023-06-14T14:33:10;24.90;96.60
20831;DHT22;10576;53.556;9.868;2023-06-14T14:35:44;24.60;95.90
20831;DHT22;10576;53.556;9.868;2023-06-14T14:38:13;24.40;96.90
20831;DHT22;10576;53.556;9.868;2023-06-14T14:40:39;24.30;97.70
20831;DHT22;10576;53.556;9.868;2023-06-14T14:43:05;24.20;98.30
20831;DHT22;10576;53.556;9.868;2023-06-14T14:45:31;24.10;97.90
20831;DHT22;10576;53.556;9.868;2023-06-14T14:47:57;24.10;98.20
20831;DHT22;10576;53.556;9.868;2023-06-14T14:50:22;24.30;97.00
20831;DHT22;10576;53.556;9.868;2023-06-14T14:52:48;24.20;97.10
20831;DHT22;10576;53.556;9.868;2023-06-14T14:55:13;24.10;97.20
20831;DHT22;10576;53.556;9.868;2023-06-14T14:57:39;24.10;97.10
20831;DHT22;10576;53.556;9.868;2023-06-14T15:00:05;24.20;96.70
20831;DHT22;10576;53.556;9.868;2023-06-14T15:02:31;24.30;96.10
20831;DHT22;10576;53.556;9.868;2023-06-14T15:04:57;24.50;96.90
20831;DHT22;10576;53.556;9.868;2023-06-14T15:07:26;24.50;97.30
20831;DHT22;10576;53.556;9.868;2023-06-14T15:09:52;24.50;97.20
20831;DHT22;10576;53.556;9.868;2023-06-14T15:12:17;24.50;97.30
20831;DHT22;10576;53.556;9.868;2023-06-14T15:14:45;24.30;96.20
20831;DHT22;10576;53.556;9.868;2023-06-14T15:17:10;24.20;95.80
20831;DHT22;10576;53.556;9.868;2023-06-14T15:19:36;24.20;96.80
20831;DHT22;10576;53.556;9.868;2023-06-14T15:22:01;24.20;97.50
20831;DHT22;10576;53.556;9.868;2023-06-14T15:24:27;24.10;96.50
20831;DHT22;10576;53.556;9.868;2023-06-14T15:26:52;24.10;96.40
20831;DHT22;10576;53.556;9.868;2023-06-14T15:29:18;24.30;95.90
20831;DHT22;10576;53.556;9.868;2023-06-14T15:31:44;24.00;96.10
20831;DHT22;10576;53.556;9.868;2023-06-14T15:34:09;23.90;96.40
20831;DHT22;10576;53.556;9.868;2023-06-14T15:36:35;23.70;95.90
20831;DHT22;10576;53.556;9.868;2023-06-14T15:39:00;23.70;95.50
20831;DHT22;10576;53.556;9.868;2023-06-14T15:41:26;23.60;96.50
20831;DHT22;10576;53.556;9.868;2023-06-14T15:43:51;23.60;95.00
20831;DHT22;10576;53.556;9.868;2023-06-14T15:46:19;23.70;95.20
20831;DHT22;10576;53.556;9.868;2023-06-14T15:48:46;23.70;95.90